createdAt,value
2023-02-06T00:02:12.719Z,6.25
2023-02-06T00:04:40.209Z,6.13
2023-02-06T00:07:07.705Z,6.47
2023-02-06T00:09:35.199Z,7.35
2023-02-06T00:12:02.757Z,6.22
2023-02-06T00:14:30.333Z,7.00
2023-02-06T00:16:57.841Z,6.63
2023-02-06T00:19:26.728Z,8.05
2023-02-06T00:21:54.234Z,7.38
2023-02-06T00:24:21.743Z,7.65
2023-02-06T00:26:49.270Z,7.22
2023-02-06T00:29:16.831Z,6.65
2023-02-06T00:31:44.411Z,6.45
2023-02-06T00:34:12.003Z,7.07
2023-02-06T00:36:40.830Z,6.75
2023-02-06T00:39:08.353Z,7.63
2023-02-06T00:41:35.804Z,7.68
2023-02-06T00:44:03.274Z,7.20
2023-02-06T00:46:32.607Z,7.70
2023-02-06T00:49:00.218Z,6.60
2023-02-06T00:51:27.734Z,7.43
2023-02-06T00:53:56.585Z,7.43
2023-02-06T00:56:24.101Z,7.03
2023-02-06T00:58:51.598Z,6.22
2023-02-06T01:01:19.247Z,6.88
2023-02-06T01:03:46.772Z,7.10
2023-02-06T01:06:14.249Z,7.28
2023-02-06T01:08:41.802Z,6.80
2023-02-06T01:11:14.397Z,6.50
2023-02-06T01:13:42.223Z,5.05
2023-02-06T01:16:10.264Z,8.07
2023-02-06T01:18:37.864Z,6.20
2023-02-06T01:21:08.711Z,6.15
2023-02-06T01:23:37.042Z,5.72
2023-02-06T01:26:06.222Z,6.95
2023-02-06T01:28:36.260Z,6.13
2023-02-06T01:31:10.045Z,7.05
2023-02-06T01:33:37.581Z,7.00
2023-02-06T01:36:05.120Z,6.57
2023-02-06T01:38:32.626Z,6.55
2023-02-06T01:41:01.128Z,6.78
2023-02-06T01:43:29.491Z,5.65
2023-02-06T01:45:58.361Z,6.82
2023-02-06T01:48:29.788Z,6.85
2023-02-06T01:50:57.924Z,7.47
2023-02-06T01:53:25.955Z,6.18
2023-02-06T01:55:55.486Z,7.13
2023-02-06T01:58:27.310Z,7.78
2023-02-06T02:00:55.117Z,7.55
2023-02-06T02:03:24.172Z,5.93
2023-02-06T02:05:51.907Z,6.72
2023-02-06T02:08:21.329Z,7.82
2023-02-06T02:10:48.854Z,5.85
2023-02-06T02:13:17.463Z,6.75
2023-02-06T02:15:51.440Z,6.40
2023-02-06T02:20:59.619Z,6.10
2023-02-06T02:23:33.799Z,6.63
2023-02-06T02:26:26.522Z,7.25
2023-02-06T02:29:14.982Z,7.05
2023-02-06T02:31:57.354Z,7.25
2023-02-06T02:34:45.743Z,7.15
2023-02-06T02:37:18.740Z,7.05
2023-02-06T02:39:48.416Z,6.63
2023-02-06T02:42:18.998Z,6.63
2023-02-06T02:44:48.618Z,5.97
2023-02-06T02:47:17.298Z,6.93
2023-02-06T02:49:45.900Z,6.93
2023-02-06T02:52:13.807Z,6.80
2023-02-06T02:54:42.723Z,6.95
2023-02-06T02:57:12.427Z,6.20
2023-02-06T02:59:42.497Z,6.93
2023-02-06T03:02:12.312Z,7.55
2023-02-06T03:04:43.423Z,7.18
2023-02-06T03:07:17.186Z,6.65
2023-02-06T03:09:51.841Z,7.07
2023-02-06T03:12:22.190Z,8.15
2023-02-06T03:14:51.804Z,6.57
2023-02-06T03:17:23.115Z,7.00
2023-02-06T03:19:54.006Z,7.30
2023-02-06T03:22:22.237Z,7.78
2023-02-06T03:24:52.336Z,7.50
2023-02-06T03:27:20.648Z,6.75
2023-02-06T03:29:48.286Z,8.43
2023-02-06T03:32:17.270Z,7.20
2023-02-06T03:34:47.671Z,7.15
2023-02-06T03:37:15.464Z,6.65
2023-02-06T03:39:43.215Z,6.45
2023-02-06T03:42:13.155Z,5.63
2023-02-06T03:44:42.704Z,6.65
2023-02-06T03:47:11.350Z,5.68
2023-02-06T03:49:40.878Z,6.43
2023-02-06T03:52:09.430Z,6.20
2023-02-06T03:54:38.200Z,5.53
2023-02-06T03:57:06.831Z,5.55
2023-02-06T03:59:35.845Z,6.40
2023-02-06T04:02:04.542Z,6.10
2023-02-06T04:04:33.112Z,5.50
2023-02-06T04:07:03.013Z,5.85
2023-02-06T04:09:30.479Z,6.05
2023-02-06T04:11:58.024Z,6.80
2023-02-06T04:14:25.532Z,5.78
2023-02-06T04:16:54.408Z,7.22
2023-02-06T04:19:21.971Z,6.53
2023-02-06T04:21:49.622Z,6.95
2023-02-06T04:24:17.333Z,7.45
2023-02-06T04:26:44.818Z,7.07
2023-02-06T04:29:12.820Z,6.97
2023-02-06T04:31:40.395Z,9.10
2023-02-06T04:34:09.323Z,7.05
2023-02-06T04:36:36.851Z,7.63
2023-02-06T04:39:06.803Z,8.18
2023-02-06T04:41:34.404Z,8.27
2023-02-06T04:44:01.885Z,9.57
2023-02-06T04:46:29.489Z,7.95
2023-02-06T04:48:57.122Z,7.07
2023-02-06T04:51:26.024Z,7.07
2023-02-06T04:53:53.494Z,7.85
2023-02-06T04:56:20.990Z,6.78
2023-02-06T04:58:48.800Z,7.93
2023-02-06T05:01:17.247Z,7.47
2023-02-06T05:03:44.927Z,7.68
2023-02-06T05:06:12.627Z,6.22
2023-02-06T05:08:41.706Z,6.10
2023-02-06T05:11:09.283Z,8.15
2023-02-06T05:13:36.855Z,6.28
2023-02-06T05:16:06.365Z,7.15
2023-02-06T05:18:33.880Z,6.55
2023-02-06T05:21:01.394Z,5.78
2023-02-06T05:23:28.928Z,5.70
2023-02-06T05:25:58.098Z,6.78
2023-02-06T05:28:25.784Z,5.80
2023-02-06T05:30:53.900Z,5.78
2023-02-06T05:33:21.491Z,6.07
2023-02-06T05:35:49.066Z,6.00
2023-02-06T05:38:16.612Z,6.32
2023-02-06T05:40:44.277Z,7.45
2023-02-06T05:43:13.141Z,6.78
2023-02-06T05:45:41.028Z,6.53
2023-02-06T05:48:08.657Z,5.43
2023-02-06T05:50:36.261Z,6.38
2023-02-06T05:53:04.072Z,5.35
2023-02-06T05:55:31.568Z,6.55
2023-02-06T05:57:59.416Z,5.95
2023-02-06T06:00:28.602Z,6.63
2023-02-06T06:02:56.090Z,5.68
2023-02-06T06:05:23.636Z,6.50
2023-02-06T06:07:51.523Z,6.40
2023-02-06T06:10:19.062Z,6.40
2023-02-06T06:12:46.554Z,5.70
2023-02-06T06:15:16.402Z,4.40
2023-02-06T06:17:45.239Z,6.50
2023-02-06T06:20:13.009Z,6.45
2023-02-06T06:22:40.558Z,6.90
2023-02-06T06:25:18.505Z,7.13
2023-02-06T06:27:46.025Z,5.60
2023-02-06T06:30:13.771Z,9.38
2023-02-06T06:32:41.387Z,5.72
2023-02-06T06:35:10.439Z,6.45
2023-02-06T06:37:37.990Z,5.38
2023-02-06T06:40:06.165Z,5.57
2023-02-06T06:42:33.706Z,6.95
2023-02-06T06:45:01.259Z,5.60
2023-02-06T06:47:31.564Z,5.03
2023-02-06T06:49:59.091Z,5.72
2023-02-06T06:52:29.994Z,6.63
2023-02-06T06:54:57.497Z,5.95
2023-02-06T06:57:25.268Z,6.10
2023-02-06T06:59:54.051Z,5.88
2023-02-06T07:02:21.610Z,5.65
2023-02-06T07:04:49.169Z,6.25
2023-02-06T07:07:16.697Z,6.03
2023-02-06T07:09:45.664Z,5.78
2023-02-06T07:12:13.244Z,5.80
2023-02-06T07:14:41.158Z,5.78
2023-02-06T07:17:08.670Z,7.00
2023-02-06T07:19:36.173Z,6.13
2023-02-06T07:22:03.688Z,6.10
2023-02-06T07:24:31.201Z,5.78
2023-02-06T07:27:00.043Z,5.93
2023-02-06T07:29:27.645Z,6.15
2023-02-06T07:31:55.229Z,6.40
2023-02-06T07:34:22.845Z,6.03
2023-02-06T07:36:50.328Z,6.43
2023-02-06T07:39:18.244Z,7.10
2023-02-06T07:41:48.212Z,6.20
2023-02-06T07:44:17.027Z,5.60
2023-02-06T07:46:45.619Z,6.35
2023-02-06T07:49:13.137Z,7.50
2023-02-06T07:51:40.654Z,6.03
2023-02-06T07:54:08.168Z,6.07
2023-02-06T07:56:35.737Z,5.65
2023-02-06T07:59:03.592Z,5.30
2023-02-06T08:01:42.795Z,6.22
2023-02-06T08:04:29.659Z,5.68
2023-02-06T08:07:25.191Z,5.45
2023-02-06T08:10:06.255Z,5.55
2023-02-06T08:12:33.899Z,5.97
2023-02-06T08:15:01.443Z,6.65
2023-02-06T08:17:30.357Z,6.18
2023-02-06T08:19:57.859Z,6.10
2023-02-06T08:22:25.363Z,5.25
2023-02-06T08:24:53.217Z,5.40
2023-02-06T08:27:22.808Z,6.22
2023-02-06T08:29:51.718Z,6.15
2023-02-06T08:32:19.337Z,5.72
2023-02-06T08:34:48.167Z,6.13
2023-02-06T08:37:15.675Z,5.82
2023-02-06T08:39:43.256Z,5.57
2023-02-06T08:42:10.782Z,5.18
2023-02-06T08:44:38.311Z,5.95
2023-02-06T08:47:10.280Z,5.10
2023-02-06T08:49:38.228Z,5.20
2023-02-06T08:52:07.476Z,5.40
2023-02-06T08:54:37.251Z,5.57
2023-02-06T08:57:06.726Z,5.60
2023-02-06T08:59:35.362Z,5.35
2023-02-06T09:02:02.961Z,5.85
2023-02-06T09:04:32.357Z,5.20
2023-02-06T09:07:00.306Z,5.78
2023-02-06T09:09:29.360Z,5.35
2023-02-06T09:12:02.344Z,4.80
2023-02-06T09:14:29.946Z,5.75
2023-02-06T09:16:58.197Z,5.85
2023-02-06T09:19:25.771Z,6.00
2023-02-06T09:21:53.460Z,5.18
2023-02-06T09:24:21.285Z,5.63
2023-02-06T09:27:00.330Z,5.63
2023-02-06T09:29:30.385Z,6.38
2023-02-06T09:31:58.455Z,5.82
2023-02-06T09:34:27.411Z,7.93
2023-02-06T09:36:56.731Z,5.68
2023-02-06T09:39:24.388Z,5.80
2023-02-06T09:41:54.528Z,5.65
2023-02-06T09:44:23.878Z,5.72
2023-02-06T09:46:53.013Z,4.75
2023-02-06T09:49:22.106Z,5.80
2023-02-06T09:52:04.514Z,6.07
2023-02-06T09:54:37.994Z,5.75
2023-02-06T09:57:09.326Z,5.82
2023-02-06T09:59:39.047Z,4.65
2023-02-06T10:02:17.084Z,5.35
2023-02-06T10:04:46.371Z,5.32
2023-02-06T10:07:20.791Z,5.57
2023-02-06T10:09:51.036Z,5.03
2023-02-06T10:12:22.099Z,6.22
2023-02-06T10:14:51.923Z,5.18
2023-02-06T10:17:21.699Z,5.75
2023-02-06T10:19:52.192Z,5.28
2023-02-06T10:22:22.032Z,5.32
2023-02-06T10:25:13.950Z,4.80
2023-02-06T10:27:46.070Z,4.78
2023-02-06T10:30:15.837Z,5.05
2023-02-06T10:32:47.579Z,4.25
2023-02-06T10:35:24.658Z,4.55
2023-02-06T10:38:06.960Z,4.82
2023-02-06T13:36:54.523Z,4.57
2023-02-06T13:39:27.058Z,4.57
2023-02-06T13:41:54.579Z,3.92
2023-02-06T13:44:23.939Z,3.70
2023-02-06T13:47:10.279Z,3.88
2023-02-06T13:49:48.956Z,4.30
2023-02-06T13:52:22.443Z,5.68
2023-02-06T13:55:05.098Z,4.25
2023-02-06T13:57:36.407Z,4.70
2023-02-06T14:01:13.882Z,4.30
2023-02-06T14:03:59.467Z,4.50
2023-02-06T14:06:43.862Z,4.38
2023-02-06T14:12:13.916Z,3.50
2023-02-06T14:14:49.456Z,3.95
2023-02-06T14:17:22.402Z,4.28
2023-02-06T14:19:57.169Z,4.38
2023-02-06T14:22:30.766Z,4.95
2023-02-06T14:25:05.409Z,4.40
2023-02-06T14:27:37.802Z,4.45
2023-02-06T14:30:28.980Z,3.97
2023-02-06T14:33:03.693Z,4.32
2023-02-06T14:35:37.813Z,4.22
2023-02-06T14:38:26.432Z,5.22
2023-02-06T14:40:55.548Z,4.93
2023-02-06T14:43:24.100Z,5.72
2023-02-06T14:46:06.266Z,4.80
2023-02-06T14:48:37.862Z,4.70
2023-02-06T14:51:06.558Z,4.63
2023-02-06T14:53:36.468Z,5.30
2023-02-06T14:56:09.205Z,4.43
2023-02-06T14:58:36.914Z,4.28
2023-02-06T15:01:21.002Z,3.95
2023-02-06T15:03:49.806Z,4.57
2023-02-06T15:06:26.635Z,3.55
2023-02-06T15:08:54.337Z,4.20
2023-02-06T15:11:23.390Z,3.60
2023-02-06T15:13:51.981Z,3.75
2023-02-06T15:16:28.120Z,3.97
2023-02-06T15:19:10.906Z,4.40
2023-02-06T15:21:39.162Z,3.85
2023-02-06T15:24:10.653Z,4.80
2023-02-06T15:26:43.493Z,3.80
2023-02-06T15:29:18.341Z,4.07
2023-02-06T15:31:49.854Z,4.43
2023-02-06T15:34:18.221Z,4.55
2023-02-06T15:36:48.285Z,4.00
2023-02-06T15:39:16.732Z,3.95
2023-02-06T15:41:45.339Z,4.60
2023-02-06T15:44:14.200Z,4.05
2023-02-06T15:46:42.068Z,3.75
2023-02-06T15:49:18.337Z,3.97
2023-02-06T15:51:51.792Z,4.05
2023-02-06T15:54:19.995Z,4.55
2023-02-06T15:56:49.941Z,4.10
2023-02-06T15:59:20.477Z,3.85
2023-02-06T16:01:48.652Z,4.50
2023-02-06T16:04:23.374Z,4.57
2023-02-06T16:07:00.664Z,4.22
2023-02-06T16:09:28.417Z,4.10
2023-02-06T16:11:57.332Z,4.43
2023-02-06T16:14:29.184Z,5.72
2023-02-06T16:16:57.782Z,4.90
2023-02-06T16:19:41.745Z,5.32
2023-02-06T16:25:35.880Z,4.22
2023-02-06T16:28:07.907Z,5.20
2023-02-06T16:34:40.948Z,4.70
2023-02-06T16:37:12.914Z,4.18
2023-02-06T16:39:42.436Z,4.47
2023-02-06T16:42:13.923Z,4.75
2023-02-06T16:44:45.435Z,4.93
2023-02-06T16:47:24.509Z,4.35
2023-02-06T16:49:53.525Z,5.60
2023-02-06T16:52:22.972Z,5.28
2023-02-06T16:54:59.907Z,5.55
2023-02-06T16:57:30.846Z,4.97
2023-02-06T16:59:58.981Z,4.97
2023-02-06T17:02:27.429Z,5.28
2023-02-06T17:04:56.754Z,5.40
2023-02-06T17:07:27.710Z,5.40
2023-02-06T17:09:56.940Z,5.93
2023-02-06T17:12:24.824Z,5.70
2023-02-06T17:15:02.524Z,5.60
2023-02-06T17:17:30.378Z,5.95
2023-02-06T17:20:01.391Z,5.82
2023-02-06T17:22:30.034Z,6.07
2023-02-06T17:24:58.534Z,6.18
2023-02-06T17:27:26.290Z,6.10
2023-02-06T17:29:54.381Z,5.88
2023-02-06T17:32:30.219Z,6.25
2023-02-06T17:35:01.614Z,5.32
2023-02-06T17:37:29.125Z,6.03
2023-02-06T17:39:56.816Z,6.65
2023-02-06T17:42:25.730Z,5.63
2023-02-06T17:44:58.215Z,5.75
2023-02-06T17:47:26.162Z,5.90
2023-02-06T17:49:58.622Z,5.88
2023-02-06T17:52:27.941Z,5.72
2023-02-06T17:54:55.599Z,6.28
2023-02-06T17:57:23.385Z,5.43
2023-02-06T17:59:53.195Z,5.80
2023-02-06T18:02:20.940Z,6.32
2023-02-06T18:04:50.217Z,5.95
2023-02-06T18:07:17.951Z,5.85
2023-02-06T18:09:47.682Z,4.97
2023-02-06T18:12:18.301Z,4.75
2023-02-06T18:14:48.045Z,7.13
2023-02-06T18:17:16.015Z,12.45
2023-02-06T18:19:45.173Z,5.65
2023-02-06T18:22:14.025Z,5.85
2023-02-06T18:24:41.542Z,5.45
2023-02-06T18:27:10.815Z,5.28
2023-02-06T18:29:48.940Z,6.03
2023-02-06T18:32:19.001Z,5.38
2023-02-06T18:34:46.646Z,5.55
2023-02-06T18:37:14.435Z,5.60
2023-02-06T18:39:42.121Z,5.80
2023-02-06T18:42:29.473Z,6.65
2023-02-06T18:44:57.304Z,5.00
2023-02-06T18:47:25.156Z,4.93
2023-02-06T18:49:52.952Z,4.90
2023-02-06T18:52:20.963Z,5.90
2023-02-06T18:54:49.056Z,6.00
2023-02-06T18:57:17.969Z,4.97
2023-02-06T18:59:45.731Z,4.80
2023-02-06T19:02:13.565Z,5.00
2023-02-06T19:04:41.432Z,5.35
2023-02-06T19:07:12.014Z,6.00
2023-02-06T19:09:40.091Z,5.95
2023-02-06T19:12:07.976Z,5.55
2023-02-06T19:14:37.433Z,5.85
2023-02-06T19:17:05.050Z,6.00
2023-02-06T19:19:32.740Z,6.28
2023-02-06T19:22:00.608Z,6.88
2023-02-06T19:24:30.621Z,5.20
2023-02-06T19:26:59.066Z,5.88
2023-02-06T19:29:35.195Z,5.70
2023-02-06T19:32:05.856Z,6.60
2023-02-06T19:34:36.288Z,6.15
2023-02-06T19:37:04.230Z,5.60
2023-02-06T19:39:34.326Z,5.15
2023-02-06T19:42:02.229Z,5.25
2023-02-06T19:44:29.821Z,5.88
2023-02-06T19:46:57.575Z,6.05
2023-02-06T19:49:27.226Z,5.13
2023-02-06T19:51:55.216Z,5.40
2023-02-06T19:54:23.136Z,5.95
2023-02-06T19:56:50.729Z,5.50
2023-02-06T19:59:29.234Z,6.00
2023-02-06T20:01:57.634Z,5.43
2023-02-06T20:04:28.236Z,4.85
2023-02-06T20:06:56.287Z,5.10
2023-02-06T20:09:24.118Z,5.78
2023-02-06T20:11:52.044Z,5.47
2023-02-06T20:14:19.956Z,4.70
2023-02-06T20:16:48.977Z,7.20
2023-02-06T20:19:23.729Z,4.88
2023-02-06T20:22:05.346Z,5.00
2023-02-06T22:15:04.938Z,8.02
2023-02-06T22:17:32.944Z,8.60
2023-02-06T22:20:01.039Z,7.60
2023-02-06T22:22:28.650Z,6.20
2023-02-06T22:24:56.199Z,6.80
2023-02-06T22:27:25.575Z,7.43
2023-02-06T22:29:53.077Z,6.30
2023-02-06T22:32:22.319Z,7.18
2023-02-06T22:34:50.888Z,6.78
2023-02-06T22:37:18.709Z,8.15
2023-02-06T22:39:46.332Z,7.68
2023-02-06T22:42:13.946Z,7.88
2023-02-06T22:44:41.908Z,7.18
2023-02-06T22:47:09.710Z,7.28
2023-02-06T22:49:41.163Z,8.27
2023-02-06T22:52:28.700Z,7.93
2023-02-06T22:54:56.211Z,7.00
2023-02-06T22:57:23.801Z,6.18
2023-02-06T22:59:51.425Z,7.28
2023-02-06T23:02:18.937Z,7.13
2023-02-06T23:04:47.754Z,7.22
2023-02-06T23:07:15.548Z,6.95
2023-02-06T23:09:43.141Z,7.32
2023-02-06T23:12:11.758Z,7.78
2023-02-06T23:14:39.587Z,9.27
2023-02-06T23:17:07.220Z,7.20
2023-02-06T23:19:35.178Z,7.32
2023-02-06T23:22:04.330Z,8.80
2023-02-06T23:24:31.822Z,6.53
2023-02-06T23:26:59.445Z,7.80
2023-02-06T23:29:27.008Z,9.13
2023-02-06T23:31:55.672Z,7.88
2023-02-06T23:34:24.580Z,8.35
2023-02-06T23:36:54.107Z,6.93
2023-02-06T23:39:23.794Z,7.22
2023-02-06T23:41:51.738Z,6.28
2023-02-06T23:44:19.811Z,8.70
2023-02-06T23:46:47.788Z,7.70
2023-02-06T23:49:15.581Z,8.02
2023-02-06T23:51:43.707Z,6.97
2023-02-06T23:54:11.751Z,8.52
2023-02-06T23:56:40.886Z,8.75
2023-02-06T23:59:08.567Z,8.32
